Weather at Roy Ranch Airport

Public forecast

Using degrees Fahrenheit for public forecast. Weather courtesy of forecast.io.

Closest aviation weather report (METAR) to Roy Ranch Airport

Closest report is Winston Field, 25.1 nm (46.5 km) SSE. Retrieved 2021/07/24 23:18 UTC (6 minutes ago):

KSNK 242318Z AUTO 12006KT 10SM CLR 37/18 A3000 RMK AO2

Closest aviation forecast (TAF) to Roy Ranch Airport

Closest forecast is Lubbock Preston Smith International Airport, 49.7 nm (92.0 km) NW. Retrieved 2021/07/24 18:24 UTC (5 hours ago):

TAF KLBB 241723Z 2418/2518 19010KT P6SM FEW100 SCT200